sensor_id;sensor_type;location;lat;lon;timestamp;P1;durP1;ratioP1;P2;durP2;ratioP2
43807;SDS011;29438;50.664;10.098;2023-07-09T00:01:54;7.15;;;3.05;;
43807;SDS011;29438;50.664;10.098;2023-07-09T00:04:20;4.72;;;2.33;;
43807;SDS011;29438;50.664;10.098;2023-07-09T00:06:46;5.13;;;2.40;;
43807;SDS011;29438;50.664;10.098;2023-07-09T00:09:12;4.40;;;2.50;;
43807;SDS011;29438;50.664;10.098;2023-07-09T00:11:45;3.88;;;2.38;;
43807;SDS011;29438;50.664;10.098;2023-07-09T00:14:14;4.78;;;2.30;;
43807;SDS011;29438;50.664;10.098;2023-07-09T00:16:42;4.40;;;2.58;;
43807;SDS011;29438;50.664;10.098;2023-07-09T00:19:12;5.57;;;2.50;;
43807;SDS011;29438;50.664;10.098;2023-07-09T00:21:41;4.55;;;2.40;;
43807;SDS011;29438;50.664;10.098;2023-07-09T00:24:10;4.82;;;2.25;;
43807;SDS011;29438;50.664;10.098;2023-07-09T00:26:37;4.85;;;2.38;;
43807;SDS011;29438;50.664;10.098;2023-07-09T00:29:03;4.80;;;2.20;;
43807;SDS011;29438;50.664;10.098;2023-07-09T00:31:29;4.43;;;2.47;;
43807;SDS011;29438;50.664;10.098;2023-07-09T00:33:55;5.07;;;2.20;;
43807;SDS011;29438;50.664;10.098;2023-07-09T00:36:28;5.90;;;2.72;;
43807;SDS011;29438;50.664;10.098;2023-07-09T00:38:56;5.10;;;2.28;;
43807;SDS011;29438;50.664;10.098;2023-07-09T00:41:24;4.55;;;2.40;;
43807;SDS011;29438;50.664;10.098;2023-07-09T00:43:51;5.03;;;2.22;;
43807;SDS011;29438;50.664;10.098;2023-07-09T00:48:45;4.30;;;2.03;;
43807;SDS011;29438;50.664;10.098;2023-07-09T00:51:25;3.80;;;2.08;;
43807;SDS011;29438;50.664;10.098;2023-07-09T00:53:54;4.93;;;2.20;;
43807;SDS011;29438;50.664;10.098;2023-07-09T00:56:27;5.75;;;2.00;;
43807;SDS011;29438;50.664;10.098;2023-07-09T00:58:57;4.40;;;2.30;;
43807;SDS011;29438;50.664;10.098;2023-07-09T01:01:29;4.70;;;2.10;;
43807;SDS011;29438;50.664;10.098;2023-07-09T01:03:56;4.55;;;2.55;;
43807;SDS011;29438;50.664;10.098;2023-07-09T01:06:31;4.30;;;2.47;;
43807;SDS011;29438;50.664;10.098;2023-07-09T01:09:09;5.55;;;2.25;;
43807;SDS011;29438;50.664;10.098;2023-07-09T01:11:35;4.10;;;2.30;;
43807;SDS011;29438;50.664;10.098;2023-07-09T01:14:03;4.28;;;2.30;;
43807;SDS011;29438;50.664;10.098;2023-07-09T01:16:32;6.18;;;2.70;;
43807;SDS011;29438;50.664;10.098;2023-07-09T01:19:02;4.95;;;2.40;;
43807;SDS011;29438;50.664;10.098;2023-07-09T01:21:29;3.65;;;2.08;;
43807;SDS011;29438;50.664;10.098;2023-07-09T01:23:55;4.32;;;2.00;;
43807;SDS011;29438;50.664;10.098;2023-07-09T01:26:23;4.97;;;2.00;;
43807;SDS011;29438;50.664;10.098;2023-07-09T01:28:50;4.90;;;2.30;;
43807;SDS011;29438;50.664;10.098;2023-07-09T01:31:17;4.35;;;1.90;;
43807;SDS011;29438;50.664;10.098;2023-07-09T01:33:43;4.75;;;2.30;;
43807;SDS011;29438;50.664;10.098;2023-07-09T01:36:13;4.88;;;1.90;;
43807;SDS011;29438;50.664;10.098;2023-07-09T01:38:41;5.28;;;2.20;;
43807;SDS011;29438;50.664;10.098;2023-07-09T01:41:08;4.22;;;1.95;;
43807;SDS011;29438;50.664;10.098;2023-07-09T01:43:38;4.22;;;1.80;;
43807;SDS011;29438;50.664;10.098;2023-07-09T01:46:06;5.72;;;2.00;;
43807;SDS011;29438;50.664;10.098;2023-07-09T01:48:33;3.45;;;1.80;;
43807;SDS011;29438;50.664;10.098;2023-07-09T01:51:06;5.22;;;2.10;;
43807;SDS011;29438;50.664;10.098;2023-07-09T01:53:34;3.28;;;1.75;;
43807;SDS011;29438;50.664;10.098;2023-07-09T01:56:02;4.47;;;1.83;;
43807;SDS011;29438;50.664;10.098;2023-07-09T01:58:28;5.03;;;1.90;;
43807;SDS011;29438;50.664;10.098;2023-07-09T02:00:56;3.88;;;1.83;;
43807;SDS011;29438;50.664;10.098;2023-07-09T02:03:22;4.05;;;1.83;;
43807;SDS011;29438;50.664;10.098;2023-07-09T02:05:50;3.78;;;1.90;;
43807;SDS011;29438;50.664;10.098;2023-07-09T02:08:19;4.32;;;1.67;;
43807;SDS011;29438;50.664;10.098;2023-07-09T02:10:48;3.60;;;1.88;;
43807;SDS011;29438;50.664;10.098;2023-07-09T02:13:14;5.05;;;2.10;;
43807;SDS011;29438;50.664;10.098;2023-07-09T02:15:39;3.22;;;1.80;;
43807;SDS011;29438;50.664;10.098;2023-07-09T02:18:08;4.38;;;2.00;;
43807;SDS011;29438;50.664;10.098;2023-07-09T02:20:34;3.88;;;2.13;;
43807;SDS011;29438;50.664;10.098;2023-07-09T02:22:59;4.47;;;2.00;;
43807;SDS011;29438;50.664;10.098;2023-07-09T02:25:25;6.32;;;2.00;;
43807;SDS011;29438;50.664;10.098;2023-07-09T02:27:50;5.78;;;2.08;;
43807;SDS011;29438;50.664;10.098;2023-07-09T02:30:16;6.18;;;2.03;;
43807;SDS011;29438;50.664;10.098;2023-07-09T02:32:41;4.18;;;2.17;;
43807;SDS011;29438;50.664;10.098;2023-07-09T02:35:07;3.58;;;1.88;;
43807;SDS011;29438;50.664;10.098;2023-07-09T02:37:33;4.97;;;2.13;;
43807;SDS011;29438;50.664;10.098;2023-07-09T02:39:58;4.85;;;2.08;;
43807;SDS011;29438;50.664;10.098;2023-07-09T02:42:24;3.70;;;1.90;;
43807;SDS011;29438;50.664;10.098;2023-07-09T02:44:50;4.25;;;1.98;;
43807;SDS011;29438;50.664;10.098;2023-07-09T02:47:15;3.67;;;1.80;;
43807;SDS011;29438;50.664;10.098;2023-07-09T02:49:41;4.10;;;1.95;;
43807;SDS011;29438;50.664;10.098;2023-07-09T02:52:07;3.88;;;1.80;;
43807;SDS011;29438;50.664;10.098;2023-07-09T02:54:33;4.35;;;1.58;;
43807;SDS011;29438;50.664;10.098;2023-07-09T02:56:58;4.32;;;1.80;;
43807;SDS011;29438;50.664;10.098;2023-07-09T02:59:24;4.07;;;1.90;;
43807;SDS011;29438;50.664;10.098;2023-07-09T03:01:51;3.90;;;2.00;;
43807;SDS011;29438;50.664;10.098;2023-07-09T03:04:17;3.90;;;2.00;;
43807;SDS011;29438;50.664;10.098;2023-07-09T03:06:45;3.33;;;1.85;;
43807;SDS011;29438;50.664;10.098;2023-07-09T03:09:10;5.45;;;2.22;;
43807;SDS011;29438;50.664;10.098;2023-07-09T03:11:36;4.20;;;1.88;;
43807;SDS011;29438;50.664;10.098;2023-07-09T03:14:01;3.58;;;1.63;;
43807;SDS011;29438;50.664;10.098;2023-07-09T03:16:28;5.55;;;2.10;;
43807;SDS011;29438;50.664;10.098;2023-07-09T03:18:55;3.65;;;1.90;;
43807;SDS011;29438;50.664;10.098;2023-07-09T03:21:24;4.85;;;1.88;;
43807;SDS011;29438;50.664;10.098;2023-07-09T03:23:51;6.35;;;1.92;;
43807;SDS011;29438;50.664;10.098;2023-07-09T03:26:18;4.70;;;2.08;;
43807;SDS011;29438;50.664;10.098;2023-07-09T03:28:43;5.50;;;1.90;;
43807;SDS011;29438;50.664;10.098;2023-07-09T03:31:09;3.90;;;1.58;;
43807;SDS011;29438;50.664;10.098;2023-07-09T03:33:34;5.32;;;1.85;;
43807;SDS011;29438;50.664;10.098;2023-07-09T03:36:00;6.00;;;2.10;;
43807;SDS011;29438;50.664;10.098;2023-07-09T03:38:25;4.10;;;2.00;;
43807;SDS011;29438;50.664;10.098;2023-07-09T03:40:51;4.05;;;1.80;;
43807;SDS011;29438;50.664;10.098;2023-07-09T03:43:18;3.47;;;1.88;;
43807;SDS011;29438;50.664;10.098;2023-07-09T03:45:45;3.80;;;2.08;;
43807;SDS011;29438;50.664;10.098;2023-07-09T03:48:11;4.10;;;1.98;;
43807;SDS011;29438;50.664;10.098;2023-07-09T03:50:37;3.10;;;1.90;;
43807;SDS011;29438;50.664;10.098;2023-07-09T03:53:03;6.03;;;2.30;;
43807;SDS011;29438;50.664;10.098;2023-07-09T03:55:31;3.75;;;2.17;;
43807;SDS011;29438;50.664;10.098;2023-07-09T03:57:57;4.85;;;2.17;;
43807;SDS011;29438;50.664;10.098;2023-07-09T04:00:23;5.85;;;2.30;;
43807;SDS011;29438;50.664;10.098;2023-07-09T04:02:49;4.50;;;2.13;;
43807;SDS011;29438;50.664;10.098;2023-07-09T04:05:16;6.43;;;2.10;;
43807;SDS011;29438;50.664;10.098;2023-07-09T04:07:42;5.40;;;2.33;;
43807;SDS011;29438;50.664;10.098;2023-07-09T04:10:09;4.53;;;2.28;;
43807;SDS011;29438;50.664;10.098;2023-07-09T04:12:34;6.88;;;2.10;;
43807;SDS011;29438;50.664;10.098;2023-07-09T04:15:01;4.55;;;2.40;;
43807;SDS011;29438;50.664;10.098;2023-07-09T04:17:31;3.88;;;2.00;;
43807;SDS011;29438;50.664;10.098;2023-07-09T04:19:56;3.53;;;2.05;;
43807;SDS011;29438;50.664;10.098;2023-07-09T04:22:22;5.82;;;2.45;;
43807;SDS011;29438;50.664;10.098;2023-07-09T04:24:48;5.45;;;2.30;;
43807;SDS011;29438;50.664;10.098;2023-07-09T04:27:14;4.80;;;2.33;;
43807;SDS011;29438;50.664;10.098;2023-07-09T04:29:40;4.15;;;2.17;;
43807;SDS011;29438;50.664;10.098;2023-07-09T04:32:15;4.85;;;2.30;;
43807;SDS011;29438;50.664;10.098;2023-07-09T04:34:41;5.97;;;2.28;;
43807;SDS011;29438;50.664;10.098;2023-07-09T04:37:07;5.07;;;2.25;;
43807;SDS011;29438;50.664;10.098;2023-07-09T04:39:34;5.32;;;2.47;;
43807;SDS011;29438;50.664;10.098;2023-07-09T04:42:00;6.38;;;2.60;;
43807;SDS011;29438;50.664;10.098;2023-07-09T04:44:26;4.28;;;2.17;;
43807;SDS011;29438;50.664;10.098;2023-07-09T04:46:54;5.22;;;2.65;;
43807;SDS011;29438;50.664;10.098;2023-07-09T04:49:19;4.53;;;2.53;;
43807;SDS011;29438;50.664;10.098;2023-07-09T04:51:45;3.78;;;2.60;;
43807;SDS011;29438;50.664;10.098;2023-07-09T04:54:10;4.82;;;2.50;;
43807;SDS011;29438;50.664;10.098;2023-07-09T04:56:36;4.68;;;2.40;;
43807;SDS011;29438;50.664;10.098;2023-07-09T04:59:02;4.07;;;2.20;;
43807;SDS011;29438;50.664;10.098;2023-07-09T05:01:28;3.40;;;2.00;;
43807;SDS011;29438;50.664;10.098;2023-07-09T05:03:54;5.43;;;2.17;;
43807;SDS011;29438;50.664;10.098;2023-07-09T05:06:20;6.78;;;2.20;;
43807;SDS011;29438;50.664;10.098;2023-07-09T05:08:46;4.38;;;2.67;;
43807;SDS011;29438;50.664;10.098;2023-07-09T05:11:13;3.85;;;2.25;;
43807;SDS011;29438;50.664;10.098;2023-07-09T05:13:39;3.42;;;2.08;;
43807;SDS011;29438;50.664;10.098;2023-07-09T05:16:05;4.95;;;2.47;;
43807;SDS011;29438;50.664;10.098;2023-07-09T05:18:31;3.97;;;2.58;;
43807;SDS011;29438;50.664;10.098;2023-07-09T05:20:56;5.43;;;2.50;;
43807;SDS011;29438;50.664;10.098;2023-07-09T05:23:23;6.32;;;2.67;;
43807;SDS011;29438;50.664;10.098;2023-07-09T05:25:50;4.43;;;2.70;;
43807;SDS011;29438;50.664;10.098;2023-07-09T05:28:20;4.45;;;2.80;;
43807;SDS011;29438;50.664;10.098;2023-07-09T05:30:46;4.97;;;2.72;;
43807;SDS011;29438;50.664;10.098;2023-07-09T05:33:11;3.47;;;2.45;;
43807;SDS011;29438;50.664;10.098;2023-07-09T05:35:37;4.43;;;2.58;;
43807;SDS011;29438;50.664;10.098;2023-07-09T05:38:02;5.18;;;2.90;;
43807;SDS011;29438;50.664;10.098;2023-07-09T05:40:28;5.05;;;2.65;;
43807;SDS011;29438;50.664;10.098;2023-07-09T05:42:53;3.58;;;2.47;;
43807;SDS011;29438;50.664;10.098;2023-07-09T05:45:19;4.40;;;2.58;;
43807;SDS011;29438;50.664;10.098;2023-07-09T05:47:44;4.30;;;2.42;;
43807;SDS011;29438;50.664;10.098;2023-07-09T05:50:10;3.75;;;2.40;;
43807;SDS011;29438;50.664;10.098;2023-07-09T05:52:35;3.45;;;2.30;;
43807;SDS011;29438;50.664;10.098;2023-07-09T05:55:02;5.05;;;2.65;;
43807;SDS011;29438;50.664;10.098;2023-07-09T05:57:28;3.80;;;2.88;;
43807;SDS011;29438;50.664;10.098;2023-07-09T05:59:53;5.13;;;3.00;;
43807;SDS011;29438;50.664;10.098;2023-07-09T06:02:19;4.57;;;3.15;;
43807;SDS011;29438;50.664;10.098;2023-07-09T06:04:46;5.20;;;3.00;;
43807;SDS011;29438;50.664;10.098;2023-07-09T06:07:14;6.22;;;2.65;;
43807;SDS011;29438;50.664;10.098;2023-07-09T06:09:40;4.05;;;2.90;;
43807;SDS011;29438;50.664;10.098;2023-07-09T06:12:07;4.20;;;2.80;;
43807;SDS011;29438;50.664;10.098;2023-07-09T06:14:33;5.15;;;3.00;;
43807;SDS011;29438;50.664;10.098;2023-07-09T06:16:59;3.97;;;2.72;;
43807;SDS011;29438;50.664;10.098;2023-07-09T06:19:25;4.15;;;2.17;;
43807;SDS011;29438;50.664;10.098;2023-07-09T06:21:51;4.93;;;2.67;;
43807;SDS011;29438;50.664;10.098;2023-07-09T06:24:17;4.45;;;2.90;;
43807;SDS011;29438;50.664;10.098;2023-07-09T06:26:43;3.78;;;2.83;;
43807;SDS011;29438;50.664;10.098;2023-07-09T06:29:08;4.38;;;2.70;;
43807;SDS011;29438;50.664;10.098;2023-07-09T06:31:34;3.80;;;3.03;;
43807;SDS011;29438;50.664;10.098;2023-07-09T06:34:01;4.03;;;2.75;;
43807;SDS011;29438;50.664;10.098;2023-07-09T06:36:26;4.30;;;2.83;;
43807;SDS011;29438;50.664;10.098;2023-07-09T06:38:52;4.38;;;2.90;;
43807;SDS011;29438;50.664;10.098;2023-07-09T06:41:17;3.45;;;2.83;;
43807;SDS011;29438;50.664;10.098;2023-07-09T06:43:43;3.67;;;2.78;;
43807;SDS011;29438;50.664;10.098;2023-07-09T06:46:11;4.50;;;2.85;;
43807;SDS011;29438;50.664;10.098;2023-07-09T06:48:38;3.80;;;2.75;;
43807;SDS011;29438;50.664;10.098;2023-07-09T06:51:03;4.05;;;3.03;;
43807;SDS011;29438;50.664;10.098;2023-07-09T06:53:29;4.63;;;3.00;;
43807;SDS011;29438;50.664;10.098;2023-07-09T06:55:55;4.63;;;2.88;;
43807;SDS011;29438;50.664;10.098;2023-07-09T06:58:23;3.70;;;3.05;;
43807;SDS011;29438;50.664;10.098;2023-07-09T07:00:52;5.65;;;3.13;;
43807;SDS011;29438;50.664;10.098;2023-07-09T07:03:18;4.55;;;2.97;;
43807;SDS011;29438;50.664;10.098;2023-07-09T07:05:45;5.75;;;3.15;;
43807;SDS011;29438;50.664;10.098;2023-07-09T07:08:13;4.05;;;3.03;;
43807;SDS011;29438;50.664;10.098;2023-07-09T07:10:40;3.83;;;2.60;;
43807;SDS011;29438;50.664;10.098;2023-07-09T07:13:05;4.88;;;2.88;;
43807;SDS011;29438;50.664;10.098;2023-07-09T07:15:31;3.97;;;2.70;;
43807;SDS011;29438;50.664;10.098;2023-07-09T07:17:57;5.35;;;2.72;;
43807;SDS011;29438;50.664;10.098;2023-07-09T07:20:22;4.22;;;3.00;;
43807;SDS011;29438;50.664;10.098;2023-07-09T07:22:48;4.05;;;2.92;;
43807;SDS011;29438;50.664;10.098;2023-07-09T07:25:14;4.35;;;3.13;;
43807;SDS011;29438;50.664;10.098;2023-07-09T07:27:40;4.95;;;2.90;;
43807;SDS011;29438;50.664;10.098;2023-07-09T07:30:06;4.85;;;2.90;;
43807;SDS011;29438;50.664;10.098;2023-07-09T07:32:38;4.10;;;3.17;;
43807;SDS011;29438;50.664;10.098;2023-07-09T07:35:08;3.55;;;2.80;;
43807;SDS011;29438;50.664;10.098;2023-07-09T07:37:34;3.65;;;2.88;;
43807;SDS011;29438;50.664;10.098;2023-07-09T07:40:00;3.92;;;2.80;;
43807;SDS011;29438;50.664;10.098;2023-07-09T07:42:26;4.07;;;2.88;;
43807;SDS011;29438;50.664;10.098;2023-07-09T07:44:52;4.65;;;2.90;;
43807;SDS011;29438;50.664;10.098;2023-07-09T07:47:17;3.50;;;2.65;;
43807;SDS011;29438;50.664;10.098;2023-07-09T07:49:43;3.72;;;2.67;;
43807;SDS011;29438;50.664;10.098;2023-07-09T07:52:08;3.88;;;2.70;;
43807;SDS011;29438;50.664;10.098;2023-07-09T07:54:35;4.10;;;2.65;;
43807;SDS011;29438;50.664;10.098;2023-07-09T07:57:01;4.40;;;2.47;;
43807;SDS011;29438;50.664;10.098;2023-07-09T07:59:27;5.15;;;2.70;;
43807;SDS011;29438;50.664;10.098;2023-07-09T08:01:52;4.78;;;2.67;;
43807;SDS011;29438;50.664;10.098;2023-07-09T08:04:18;4.03;;;2.67;;
43807;SDS011;29438;50.664;10.098;2023-07-09T08:06:43;3.33;;;2.25;;
43807;SDS011;29438;50.664;10.098;2023-07-09T08:09:09;3.55;;;2.55;;
43807;SDS011;29438;50.664;10.098;2023-07-09T08:11:34;3.10;;;1.50;;
43807;SDS011;29438;50.664;10.098;2023-07-09T08:14:00;3.53;;;1.50;;
43807;SDS011;29438;50.664;10.098;2023-07-09T08:16:25;2.83;;;1.50;;
43807;SDS011;29438;50.664;10.098;2023-07-09T08:18:51;2.15;;;1.40;;
43807;SDS011;29438;50.664;10.098;2023-07-09T08:21:17;2.30;;;1.52;;
43807;SDS011;29438;50.664;10.098;2023-07-09T08:23:42;2.88;;;1.70;;
43807;SDS011;29438;50.664;10.098;2023-07-09T08:26:08;4.47;;;1.63;;
43807;SDS011;29438;50.664;10.098;2023-07-09T08:28:34;4.10;;;1.52;;
43807;SDS011;29438;50.664;10.098;2023-07-09T08:31:00;4.35;;;1.50;;
43807;SDS011;29438;50.664;10.098;2023-07-09T08:33:26;4.63;;;1.45;;
43807;SDS011;29438;50.664;10.098;2023-07-09T08:35:52;3.22;;;1.30;;
43807;SDS011;29438;50.664;10.098;2023-07-09T08:38:19;2.92;;;1.17;;
43807;SDS011;29438;50.664;10.098;2023-07-09T08:40:57;2.58;;;1.30;;
43807;SDS011;29438;50.664;10.098;2023-07-09T08:48:46;3.10;;;1.38;;
43807;SDS011;29438;50.664;10.098;2023-07-09T08:51:15;2.10;;;1.00;;
43807;SDS011;29438;50.664;10.098;2023-07-09T08:54:00;3.85;;;1.05;;
43807;SDS011;29438;50.664;10.098;2023-07-09T08:56:26;3.20;;;1.40;;
43807;SDS011;29438;50.664;10.098;2023-07-09T08:58:58;2.75;;;1.17;;
43807;SDS011;29438;50.664;10.098;2023-07-09T09:01:27;3.88;;;1.38;;
43807;SDS011;29438;50.664;10.098;2023-07-09T09:04:00;3.83;;;1.42;;
43807;SDS011;29438;50.664;10.098;2023-07-09T09:06:31;2.23;;;0.90;;
43807;SDS011;29438;50.664;10.098;2023-07-09T09:16:57;3.40;;;1.50;;
43807;SDS011;29438;50.664;10.098;2023-07-09T09:19:25;2.63;;;1.40;;
43807;SDS011;29438;50.664;10.098;2023-07-09T09:21:56;2.88;;;1.60;;
43807;SDS011;29438;50.664;10.098;2023-07-09T09:24:27;3.65;;;1.80;;
43807;SDS011;29438;50.664;10.098;2023-07-09T09:27:01;3.60;;;1.77;;
43807;SDS011;29438;50.664;10.098;2023-07-09T09:29:27;3.10;;;1.98;;
43807;SDS011;29438;50.664;10.098;2023-07-09T09:31:54;3.17;;;1.60;;
43807;SDS011;29438;50.664;10.098;2023-07-09T09:34:23;3.72;;;1.98;;
43807;SDS011;29438;50.664;10.098;2023-07-09T09:36:54;4.05;;;1.98;;
43807;SDS011;29438;50.664;10.098;2023-07-09T09:39:22;3.83;;;1.92;;
43807;SDS011;29438;50.664;10.098;2023-07-09T09:41:51;2.88;;;1.70;;
43807;SDS011;29438;50.664;10.098;2023-07-09T09:44:19;4.25;;;1.67;;
43807;SDS011;29438;50.664;10.098;2023-07-09T09:46:58;5.70;;;2.03;;
43807;SDS011;29438;50.664;10.098;2023-07-09T09:49:23;5.25;;;2.25;;
43807;SDS011;29438;50.664;10.098;2023-07-09T09:51:49;3.50;;;1.90;;
43807;SDS011;29438;50.664;10.098;2023-07-09T09:54:19;3.45;;;2.00;;
43807;SDS011;29438;50.664;10.098;2023-07-09T09:56:47;3.85;;;1.80;;
43807;SDS011;29438;50.664;10.098;2023-07-09T09:59:19;3.88;;;1.90;;
43807;SDS011;29438;50.664;10.098;2023-07-09T10:01:46;3.50;;;1.75;;
43807;SDS011;29438;50.664;10.098;2023-07-09T10:04:16;3.53;;;2.22;;
43807;SDS011;29438;50.664;10.098;2023-07-09T10:06:45;5.10;;;1.80;;
43807;SDS011;29438;50.664;10.098;2023-07-09T10:09:19;3.88;;;1.95;;
43807;SDS011;29438;50.664;10.098;2023-07-09T10:11:53;3.53;;;1.92;;
43807;SDS011;29438;50.664;10.098;2023-07-09T10:17:17;4.13;;;2.30;;
43807;SDS011;29438;50.664;10.098;2023-07-09T10:19:57;3.60;;;2.05;;
43807;SDS011;29438;50.664;10.098;2023-07-09T10:22:36;5.53;;;2.20;;
43807;SDS011;29438;50.664;10.098;2023-07-09T10:25:35;3.35;;;2.10;;
43807;SDS011;29438;50.664;10.098;2023-07-09T10:28:22;4.00;;;2.10;;
43807;SDS011;29438;50.664;10.098;2023-07-09T10:31:04;4.68;;;2.30;;
43807;SDS011;29438;50.664;10.098;2023-07-09T10:36:40;5.15;;;2.00;;
43807;SDS011;29438;50.664;10.098;2023-07-09T10:42:01;5.72;;;2.03;;
43807;SDS011;29438;50.664;10.098;2023-07-09T10:44:29;4.47;;;2.47;;
43807;SDS011;29438;50.664;10.098;2023-07-09T10:47:01;5.85;;;2.53;;
43807;SDS011;29438;50.664;10.098;2023-07-09T10:49:38;4.15;;;2.13;;
43807;SDS011;29438;50.664;10.098;2023-07-09T10:52:10;6.43;;;2.53;;
43807;SDS011;29438;50.664;10.098;2023-07-09T10:58:03;3.50;;;2.28;;
43807;SDS011;29438;50.664;10.098;2023-07-09T11:00:37;4.30;;;2.30;;
43807;SDS011;29438;50.664;10.098;2023-07-09T11:03:51;3.50;;;2.30;;
43807;SDS011;29438;50.664;10.098;2023-07-09T11:05:56;3.45;;;2.42;;
43807;SDS011;29438;50.664;10.098;2023-07-09T11:08:23;5.15;;;2.80;;
43807;SDS011;29438;50.664;10.098;2023-07-09T11:11:00;3.85;;;2.13;;
43807;SDS011;29438;50.664;10.098;2023-07-09T11:16:06;4.25;;;2.50;;
43807;SDS011;29438;50.664;10.098;2023-07-09T11:18:41;7.30;;;2.40;;
43807;SDS011;29438;50.664;10.098;2023-07-09T11:21:17;5.05;;;2.55;;
43807;SDS011;29438;50.664;10.098;2023-07-09T11:23:53;4.72;;;2.50;;
43807;SDS011;29438;50.664;10.098;2023-07-09T11:31:43;5.80;;;2.35;;
43807;SDS011;29438;50.664;10.098;2023-07-09T11:41:46;5.00;;;2.65;;
43807;SDS011;29438;50.664;10.098;2023-07-09T11:44:14;5.03;;;2.38;;
43807;SDS011;29438;50.664;10.098;2023-07-09T11:49:59;5.65;;;2.45;;
43807;SDS011;29438;50.664;10.098;2023-07-09T11:52:28;5.22;;;2.38;;
43807;SDS011;29438;50.664;10.098;2023-07-09T11:55:01;4.20;;;2.60;;
43807;SDS011;29438;50.664;10.098;2023-07-09T11:57:28;5.18;;;2.80;;
43807;SDS011;29438;50.664;10.098;2023-07-09T11:59:58;5.45;;;2.58;;
43807;SDS011;29438;50.664;10.098;2023-07-09T12:02:24;5.50;;;2.90;;
43807;SDS011;29438;50.664;10.098;2023-07-09T12:04:57;6.13;;;2.83;;
43807;SDS011;29438;50.664;10.098;2023-07-09T12:07:23;4.93;;;2.72;;
43807;SDS011;29438;50.664;10.098;2023-07-09T12:09:50;5.38;;;2.63;;
43807;SDS011;29438;50.664;10.098;2023-07-09T12:12:20;5.93;;;2.53;;
43807;SDS011;29438;50.664;10.098;2023-07-09T12:14:48;4.82;;;2.70;;
43807;SDS011;29438;50.664;10.098;2023-07-09T12:17:14;4.50;;;2.80;;
43807;SDS011;29438;50.664;10.098;2023-07-09T12:19:40;6.53;;;2.50;;
43807;SDS011;29438;50.664;10.098;2023-07-09T12:22:06;4.57;;;2.90;;
43807;SDS011;29438;50.664;10.098;2023-07-09T12:24:42;5.57;;;2.70;;
43807;SDS011;29438;50.664;10.098;2023-07-09T12:29:45;4.03;;;2.63;;
43807;SDS011;29438;50.664;10.098;2023-07-09T12:32:12;5.78;;;2.63;;
43807;SDS011;29438;50.664;10.098;2023-07-09T12:34:40;7.07;;;2.97;;
43807;SDS011;29438;50.664;10.098;2023-07-09T12:37:07;4.75;;;2.58;;
43807;SDS011;29438;50.664;10.098;2023-07-09T12:39:38;5.70;;;2.65;;
43807;SDS011;29438;50.664;10.098;2023-07-09T12:42:04;4.63;;;2.60;;
43807;SDS011;29438;50.664;10.098;2023-07-09T12:44:31;5.07;;;2.70;;
43807;SDS011;29438;50.664;10.098;2023-07-09T12:47:00;5.43;;;2.70;;
43807;SDS011;29438;50.664;10.098;2023-07-09T12:49:30;4.50;;;2.70;;
43807;SDS011;29438;50.664;10.098;2023-07-09T12:52:02;4.95;;;2.80;;
43807;SDS011;29438;50.664;10.098;2023-07-09T12:54:36;5.20;;;2.53;;
43807;SDS011;29438;50.664;10.098;2023-07-09T12:57:03;5.90;;;2.78;;
43807;SDS011;29438;50.664;10.098;2023-07-09T12:59:39;5.05;;;2.50;;
43807;SDS011;29438;50.664;10.098;2023-07-09T13:04:45;3.78;;;2.53;;
43807;SDS011;29438;50.664;10.098;2023-07-09T13:09:53;4.18;;;2.60;;
43807;SDS011;29438;50.664;10.098;2023-07-09T13:14:53;5.57;;;2.60;;
43807;SDS011;29438;50.664;10.098;2023-07-09T13:17:19;4.80;;;2.40;;
43807;SDS011;29438;50.664;10.098;2023-07-09T13:19:45;5.60;;;2.30;;
43807;SDS011;29438;50.664;10.098;2023-07-09T13:22:14;5.65;;;2.80;;
43807;SDS011;29438;50.664;10.098;2023-07-09T13:24:41;5.75;;;2.63;;
43807;SDS011;29438;50.664;10.098;2023-07-09T13:27:16;5.32;;;2.20;;
43807;SDS011;29438;50.664;10.098;2023-07-09T13:29:42;7.22;;;2.92;;
43807;SDS011;29438;50.664;10.098;2023-07-09T13:32:11;4.97;;;2.70;;
43807;SDS011;29438;50.664;10.098;2023-07-09T13:34:39;4.80;;;2.80;;
43807;SDS011;29438;50.664;10.098;2023-07-09T13:37:08;5.28;;;2.50;;
43807;SDS011;29438;50.664;10.098;2023-07-09T13:39:37;3.78;;;2.47;;
43807;SDS011;29438;50.664;10.098;2023-07-09T13:42:02;4.15;;;2.50;;
43807;SDS011;29438;50.664;10.098;2023-07-09T13:44:29;7.47;;;2.50;;
43807;SDS011;29438;50.664;10.098;2023-07-09T13:46:58;6.45;;;2.45;;
43807;SDS011;29438;50.664;10.098;2023-07-09T13:49:24;4.40;;;2.40;;
43807;SDS011;29438;50.664;10.098;2023-07-09T13:51:53;5.18;;;2.35;;
43807;SDS011;29438;50.664;10.098;2023-07-09T13:54:24;5.57;;;2.45;;
43807;SDS011;29438;50.664;10.098;2023-07-09T13:57:07;4.15;;;2.40;;
43807;SDS011;29438;50.664;10.098;2023-07-09T13:59:38;5.05;;;2.60;;
43807;SDS011;29438;50.664;10.098;2023-07-09T14:02:07;6.18;;;2.72;;
43807;SDS011;29438;50.664;10.098;2023-07-09T14:04:42;5.57;;;2.60;;
43807;SDS011;29438;50.664;10.098;2023-07-09T14:07:12;5.45;;;2.60;;
43807;SDS011;29438;50.664;10.098;2023-07-09T14:09:49;6.22;;;2.40;;
43807;SDS011;29438;50.664;10.098;2023-07-09T14:12:14;4.82;;;2.50;;
43807;SDS011;29438;50.664;10.098;2023-07-09T14:14:40;5.80;;;2.58;;
43807;SDS011;29438;50.664;10.098;2023-07-09T14:17:09;6.03;;;2.67;;
43807;SDS011;29438;50.664;10.098;2023-07-09T14:19:37;4.43;;;2.47;;
43807;SDS011;29438;50.664;10.098;2023-07-09T14:22:04;4.25;;;2.20;;
43807;SDS011;29438;50.664;10.098;2023-07-09T14:24:50;4.90;;;2.42;;
43807;SDS011;29438;50.664;10.098;2023-07-09T14:27:16;6.05;;;2.75;;
43807;SDS011;29438;50.664;10.098;2023-07-09T14:29:43;5.78;;;2.58;;
43807;SDS011;29438;50.664;10.098;2023-07-09T14:32:26;4.25;;;2.42;;
43807;SDS011;29438;50.664;10.098;2023-07-09T14:34:55;4.60;;;2.40;;
43807;SDS011;29438;50.664;10.098;2023-07-09T14:37:21;4.00;;;2.40;;
43807;SDS011;29438;50.664;10.098;2023-07-09T14:39:46;5.78;;;2.45;;
43807;SDS011;29438;50.664;10.098;2023-07-09T14:42:12;5.13;;;2.60;;
43807;SDS011;29438;50.664;10.098;2023-07-09T14:44:39;3.70;;;2.35;;
43807;SDS011;29438;50.664;10.098;2023-07-09T14:47:07;4.57;;;2.47;;
43807;SDS011;29438;50.664;10.098;2023-07-09T14:49:39;5.00;;;2.22;;
43807;SDS011;29438;50.664;10.098;2023-07-09T14:52:05;4.30;;;2.38;;
43807;SDS011;29438;50.664;10.098;2023-07-09T14:54:38;3.97;;;2.40;;
43807;SDS011;29438;50.664;10.098;2023-07-09T14:57:07;4.68;;;2.58;;
43807;SDS011;29438;50.664;10.098;2023-07-09T14:59:41;4.18;;;2.33;;
43807;SDS011;29438;50.664;10.098;2023-07-09T15:02:49;4.88;;;2.28;;
43807;SDS011;29438;50.664;10.098;2023-07-09T15:05:05;5.85;;;2.17;;
43807;SDS011;29438;50.664;10.098;2023-07-09T15:07:36;4.45;;;2.40;;
43807;SDS011;29438;50.664;10.098;2023-07-09T15:10:02;4.18;;;2.17;;
43807;SDS011;29438;50.664;10.098;2023-07-09T15:12:32;3.88;;;2.17;;
43807;SDS011;29438;50.664;10.098;2023-07-09T15:15:01;5.00;;;2.20;;
43807;SDS011;29438;50.664;10.098;2023-07-09T15:17:39;5.03;;;2.03;;
43807;SDS011;29438;50.664;10.098;2023-07-09T15:20:04;4.63;;;2.40;;
43807;SDS011;29438;50.664;10.098;2023-07-09T15:22:34;5.25;;;2.33;;
43807;SDS011;29438;50.664;10.098;2023-07-09T15:25:00;5.65;;;2.42;;
43807;SDS011;29438;50.664;10.098;2023-07-09T15:27:26;5.93;;;2.28;;
43807;SDS011;29438;50.664;10.098;2023-07-09T15:29:52;5.93;;;2.25;;
43807;SDS011;29438;50.664;10.098;2023-07-09T15:32:18;4.32;;;2.10;;
43807;SDS011;29438;50.664;10.098;2023-07-09T15:34:44;4.63;;;2.40;;
43807;SDS011;29438;50.664;10.098;2023-07-09T15:37:11;4.25;;;2.10;;